Time;durP1;ratioP1;P1;durP2;ratioP2;P2;SDS_P1;SDS_P2;PMS_P1;PMS_P2;Temp;Humidity;BMP_temperature;BMP_pressure;BME280_temperature;BME280_humidity;BME280_pressure;Samples;Min_cycle;Max_cycle;Signal;HPM_P1;HPM_P2
2023/04/11 00:00:19;;;;;;;3.17;2.28;;;;;;;9.31;100.00;95560.00;1040229;28;20314;-72
2023/04/11 00:00:50;;;;;;;4.70;2.45;;;;;;;9.37;100.00;95569.44;1034709;28;20021;-74
2023/04/11 00:01:21;;;;;;;3.22;2.15;;;;;;;9.38;100.00;95576.25;1026654;28;20035;-72
2023/04/11 00:01:52;;;;;;;2.58;2.10;;;;;;;9.37;100.00;95569.44;1027555;28;20274;-73
2023/04/11 00:02:22;;;;;;;2.45;1.95;;;;;;;9.39;100.00;95567.38;1031101;28;20269;-73
2023/04/11 00:02:58;;;;;;;5.05;2.47;;;;;;;9.40;100.00;95571.56;1042942;28;20032;-73
2023/04/11 00:03:28;;;;;;;3.78;2.35;;;;;;;9.36;100.00;95568.66;1035343;28;20026;-72
2023/04/11 00:03:59;;;;;;;2.83;2.10;;;;;;;9.37;100.00;95570.25;1035684;28;20626;-72
2023/04/11 00:04:30;;;;;;;3.35;1.98;;;;;;;9.37;100.00;95564.22;1037806;28;20067;-72
2023/04/11 00:05:01;;;;;;;3.60;2.40;;;;;;;9.37;100.00;95565.00;1034767;28;20033;-72
2023/04/11 00:05:32;;;;;;;5.85;2.65;;;;;;;9.39;100.00;95562.13;1034579;28;20113;-72
2023/04/11 00:06:03;;;;;;;3.85;2.15;;;;;;;9.41;100.00;95566.03;1038828;28;20805;-72
2023/04/11 00:06:34;;;;;;;2.67;2.08;;;;;;;9.40;100.00;95576.78;1035040;28;20111;-74
2023/04/11 00:07:06;;;;;;;2.63;2.05;;;;;;;9.40;100.00;95569.72;1037390;28;20389;-72
2023/04/11 00:07:37;;;;;;;2.50;2.30;;;;;;;9.39;100.00;95570.00;1045414;28;20035;-73
2023/04/11 00:08:07;;;;;;;3.63;2.13;;;;;;;9.41;100.00;95562.66;1031119;28;20316;-72
2023/04/11 00:08:37;;;;;;;4.05;2.53;;;;;;;9.42;100.00;95569.44;1030532;28;20472;-72
2023/04/11 00:09:10;;;;;;;3.70;2.45;;;;;;;9.41;100.00;95578.34;1034688;28;20087;-72
2023/04/11 00:09:41;;;;;;;3.60;2.47;;;;;;;9.42;100.00;95572.06;1031047;28;20030;-73
2023/04/11 00:10:11;;;;;;;3.17;2.47;;;;;;;9.46;100.00;95567.91;1030886;28;21058;-72
2023/04/11 00:10:42;;;;;;;2.63;2.30;;;;;;;9.47;100.00;95572.09;1034442;28;20034;-73
2023/04/11 00:11:12;;;;;;;2.65;2.10;;;;;;;9.43;100.00;95560.56;1034806;28;20038;-72
2023/04/11 00:11:43;;;;;;;3.97;2.30;;;;;;;9.49;100.00;95567.41;1034666;28;20037;-73
2023/04/11 00:12:13;;;;;;;2.65;1.98;;;;;;;9.50;100.00;95568.97;1036627;28;20029;-73
2023/04/11 00:12:43;;;;;;;3.17;2.28;;;;;;;9.52;100.00;95566.84;1034532;28;20088;-72
2023/04/11 00:13:14;;;;;;;3.42;2.58;;;;;;;9.53;100.00;95562.41;1026764;28;20035;-73
2023/04/11 00:13:46;;;;;;;4.40;2.15;;;;;;;9.52;100.00;95561.59;1039479;28;20032;-72
2023/04/11 00:14:17;;;;;;;2.35;2.00;;;;;;;9.52;100.00;95555.59;1038855;28;20029;-72
2023/04/11 00:14:48;;;;;;;3.20;2.13;;;;;;;9.49;100.00;95551.69;1034618;28;20551;-72
2023/04/11 00:15:18;;;;;;;3.22;2.47;;;;;;;9.54;100.00;95551.66;1030413;28;20274;-72
2023/04/11 00:15:54;;;;;;;2.38;2.08;;;;;;;9.53;100.00;95550.09;1025395;28;20027;-72
2023/04/11 00:16:25;;;;;;;2.80;2.05;;;;;;;9.52;100.00;95540.66;1031630;28;20033;-73
2023/04/11 00:16:55;;;;;;;4.07;2.28;;;;;;;9.55;100.00;95545.38;1031533;28;20347;-73
2023/04/11 00:17:30;;;;;;;2.50;2.20;;;;;;;9.57;100.00;95542.50;1037766;28;20268;-72
2023/04/11 00:18:00;;;;;;;3.28;2.28;;;;;;;9.52;100.00;95535.41;1034784;28;20548;-74
2023/04/11 00:18:34;;;;;;;2.63;2.08;;;;;;;9.50;100.00;95532.28;1031206;28;20362;-73
2023/04/11 00:19:06;;;;;;;3.75;2.30;;;;;;;9.57;100.00;95538.06;1040010;28;20930;-72
2023/04/11 00:19:37;;;;;;;2.30;1.95;;;;;;;9.52;100.00;95530.19;1042066;28;20901;-73
2023/04/11 00:20:09;;;;;;;3.20;2.35;;;;;;;9.59;100.00;95540.41;1033484;28;20249;-73
2023/04/11 00:20:40;;;;;;;2.67;2.05;;;;;;;9.57;100.00;95538.06;1034533;28;20291;-73
2023/04/11 00:21:10;;;;;;;3.55;2.30;;;;;;;9.46;100.00;95520.78;1030470;28;20813;-73
2023/04/11 00:21:42;;;;;;;2.83;2.03;;;;;;;9.62;100.00;95545.94;1031728;28;20037;-73
2023/04/11 00:22:16;;;;;;;2.42;1.90;;;;;;;9.59;100.00;95529.94;1038601;28;20037;-73
2023/04/11 00:22:47;;;;;;;3.10;2.10;;;;;;;9.56;100.00;95526.00;1031139;28;20261;-74
2023/04/11 00:23:17;;;;;;;3.35;2.13;;;;;;;9.64;100.00;95533.34;1038634;28;20897;-72
2023/04/11 00:23:48;;;;;;;2.72;1.90;;;;;;;9.65;100.00;95534.91;1038891;28;20021;-72
2023/04/11 00:24:18;;;;;;;3.40;2.22;;;;;;;9.67;100.00;95537.28;1034608;28;20720;-72
2023/04/11 00:24:49;;;;;;;2.92;2.03;;;;;;;9.67;100.00;95532.81;1033815;28;20384;-72
2023/04/11 00:25:19;;;;;;;3.63;2.20;;;;;;;9.68;100.00;95529.16;1026340;28;20122;-72
2023/04/11 00:25:50;;;;;;;3.20;2.30;;;;;;;9.54;100.00;95509.75;1030713;28;20034;-73
2023/04/11 00:26:20;;;;;;;2.63;2.03;;;;;;;9.70;100.00;95520.25;1030541;28;20030;-72
2023/04/11 00:26:51;;;;;;;3.22;2.30;;;;;;;9.79;100.00;95531.78;1030672;28;20038;-72
2023/04/11 00:27:22;;;;;;;3.42;1.90;;;;;;;9.78;100.00;95533.59;1034851;28;20048;-73
2023/04/11 00:27:52;;;;;;;2.08;1.88;;;;;;;9.80;100.00;95531.53;1037521;28;20314;-72
2023/04/11 00:28:23;;;;;;;2.53;2.10;;;;;;;9.83;100.00;95527.59;1034830;28;20404;-72
2023/04/11 00:28:53;;;;;;;2.50;1.90;;;;;;;9.72;100.00;95510.28;1026516;28;20033;-72
2023/04/11 00:29:24;;;;;;;3.63;2.40;;;;;;;9.87;100.00;95528.63;1026420;28;20037;-72
2023/04/11 00:29:56;;;;;;;2.80;2.20;;;;;;;9.88;100.00;95538.06;1022727;28;20027;-72
2023/04/11 00:30:27;;;;;;;3.33;2.08;;;;;;;9.83;100.00;95519.75;1031654;28;20026;-72
2023/04/11 00:30:57;;;;;;;3.03;2.08;;;;;;;9.84;100.00;95531.78;1038845;28;20300;-72
2023/04/11 00:31:28;;;;;;;2.75;2.20;;;;;;;9.83;100.00;95530.22;1041865;28;20053;-72
2023/04/11 00:31:59;;;;;;;3.55;2.15;;;;;;;9.88;100.00;95532.81;1034685;28;20384;-72
2023/04/11 00:32:30;;;;;;;2.83;2.03;;;;;;;9.90;100.00;95530.75;1035098;28;20465;-72
2023/04/11 00:33:00;;;;;;;2.28;2.03;;;;;;;9.87;100.00;95524.19;1034548;28;20273;-73
2023/04/11 00:33:31;;;;;;;2.78;2.38;;;;;;;9.88;100.00;95533.59;1030684;28;20034;-73
2023/04/11 00:34:01;;;;;;;2.45;2.10;;;;;;;9.87;100.00;95536.50;1030664;28;20050;-72
2023/04/11 00:34:33;;;;;;;4.90;2.35;;;;;;;9.88;100.00;95533.59;1026060;28;20554;-72
2023/04/11 00:35:03;;;;;;;4.65;2.25;;;;;;;9.86;100.00;95529.69;1030605;28;20049;-72
2023/04/11 00:35:36;;;;;;;3.35;2.00;;;;;;;9.88;100.00;95533.59;1038908;28;20788;-72
2023/04/11 00:36:07;;;;;;;2.53;1.95;;;;;;;9.85;100.00;95523.66;1042381;28;20434;-72
2023/04/11 00:36:40;;;;;;;2.92;1.95;;;;;;;9.89;100.00;95529.97;1037168;28;20303;-72
2023/04/11 00:37:12;;;;;;;2.03;1.83;;;;;;;9.91;100.00;95529.69;1037741;28;20275;-71
2023/04/11 00:37:45;;;;;;;2.30;1.92;;;;;;;9.96;100.00;95529.69;1038481;28;20268;-72
2023/04/11 00:38:15;;;;;;;2.92;2.20;;;;;;;9.96;100.00;95526.25;1040598;28;21014;-73
2023/04/11 00:38:46;;;;;;;2.50;1.80;;;;;;;9.93;100.00;95524.97;1051069;28;20265;-72
2023/04/11 00:39:21;;;;;;;3.25;2.17;;;;;;;9.96;100.00;95534.94;1042468;28;20579;-72
2023/04/11 00:39:55;;;;;;;3.50;2.20;;;;;;;9.91;100.00;95525.22;1030267;28;20060;-72
2023/04/11 00:40:25;;;;;;;2.22;1.90;;;;;;;10.00;100.00;95530.72;1034064;28;21174;-72
2023/04/11 00:40:55;;;;;;;2.20;2.00;;;;;;;9.96;100.00;95518.41;1031299;28;20328;-73
2023/04/11 00:41:26;;;;;;;3.03;1.85;;;;;;;10.01;100.00;95527.06;1035145;28;20415;-72
2023/04/11 00:42:04;;;;;;;3.53;2.20;;;;;;;10.00;100.00;95514.22;1034605;28;20104;-72
2023/04/11 00:42:35;;;;;;;2.88;1.95;;;;;;;10.06;100.00;95534.13;1031605;28;20046;-72
2023/04/11 00:43:05;;;;;;;2.17;1.98;;;;;;;10.04;100.00;95523.91;1031631;28;20273;-72
2023/04/11 00:43:36;;;;;;;1.83;1.67;;;;;;;10.04;100.00;95531.00;1031732;28;20030;-73
2023/04/11 00:44:07;;;;;;;2.30;2.00;;;;;;;10.05;100.00;95532.56;1034382;28;20037;-72
2023/04/11 00:44:39;;;;;;;3.05;2.22;;;;;;;10.07;100.00;95526.00;1041317;28;20066;-72
2023/04/11 00:45:10;;;;;;;2.65;2.15;;;;;;;10.09;100.00;95530.97;1042468;28;20252;-72
2023/04/11 00:45:40;;;;;;;2.50;1.88;;;;;;;10.12;100.00;95533.84;1042827;28;20498;-73
2023/04/11 00:46:10;;;;;;;2.80;2.25;;;;;;;10.13;100.00;95543.31;1042487;28;20029;-72
2023/04/11 00:46:42;;;;;;;3.72;2.10;;;;;;;10.11;100.00;95540.16;1040546;28;20014;-72
2023/04/11 00:47:13;;;;;;;2.35;1.83;;;;;;;10.08;100.00;95545.13;1038634;28;20463;-72
2023/04/11 00:47:44;;;;;;;4.72;2.80;;;;;;;10.05;100.00;95543.81;1039142;28;20279;-73
2023/04/11 00:48:14;;;;;;;2.92;2.00;;;;;;;10.08;100.00;95542.50;1030685;28;20268;-72
2023/04/11 00:48:45;;;;;;;2.25;1.92;;;;;;;10.06;100.00;95550.66;1030843;28;20089;-72
2023/04/11 00:49:15;;;;;;;2.58;1.98;;;;;;;10.05;100.00;95556.16;1022191;29;20727;-72
2023/04/11 00:49:46;;;;;;;2.20;1.95;;;;;;;10.03;100.00;95556.41;1026554;28;20039;-72
2023/04/11 00:50:17;;;;;;;2.70;2.03;;;;;;;10.01;100.00;95555.88;1030201;28;20093;-72
2023/04/11 00:50:47;;;;;;;2.53;2.10;;;;;;;9.98;100.00;95550.38;1038882;28;20473;-72
2023/04/11 00:51:18;;;;;;;3.28;2.00;;;;;;;9.98;100.00;95553.78;1042943;28;20271;-72
2023/04/11 00:51:48;;;;;;;2.10;1.88;;;;;;;9.97;100.00;95544.38;1040734;28;20530;-72
2023/04/11 00:52:19;;;;;;;4.05;2.47;;;;;;;9.89;100.00;95539.63;1030372;28;20026;-72
2023/04/11 00:52:50;;;;;;;3.35;2.22;;;;;;;9.93;100.00;95545.94;1030765;28;20769;-72
2023/04/11 00:53:21;;;;;;;2.58;1.95;;;;;;;9.91;100.00;95545.41;1035318;28;20025;-72
2023/04/11 00:53:51;;;;;;;1.70;1.60;;;;;;;9.87;100.00;95537.28;1022462;28;20023;-72
2023/04/11 00:54:27;;;;;;;2.60;2.10;;;;;;;9.88;100.00;95544.09;1030379;28;20022;-72
2023/04/11 00:54:58;;;;;;;2.10;1.90;;;;;;;9.80;100.00;95530.75;1026382;28;20035;-72
2023/04/11 00:55:29;;;;;;;3.42;2.42;;;;;;;9.84;100.00;95537.81;1022270;29;20642;-72
2023/04/11 00:55:59;;;;;;;3.22;2.13;;;;;;;9.79;100.00;95535.19;1034660;28;20056;-73
2023/04/11 00:56:30;;;;;;;2.97;1.70;;;;;;;9.82;100.00;95539.09;1038417;28;20033;-72
2023/04/11 00:57:01;;;;;;;3.90;2.22;;;;;;;9.82;100.00;95539.09;1034505;28;20022;-72
2023/04/11 00:57:32;;;;;;;3.47;2.30;;;;;;;9.82;100.00;95537.28;1030356;28;20492;-73
2023/04/11 00:58:02;;;;;;;2.22;2.03;;;;;;;9.83;100.00;95538.88;1026488;28;20275;-72
2023/04/11 00:58:33;;;;;;;3.40;2.42;;;;;;;9.85;100.00;95535.97;1031922;28;20023;-72
2023/04/11 00:59:04;;;;;;;4.20;2.38;;;;;;;9.79;100.00;95529.16;1034390;28;20020;-71
2023/04/11 00:59:34;;;;;;;1.63;1.52;;;;;;;9.83;100.00;95535.47;1030461;28;20018;-72
2023/04/11 01:00:10;;;;;;;2.58;2.10;;;;;;;9.85;100.00;95528.09;1022946;28;20015;-72
2023/04/11 01:00:41;;;;;;;2.33;2.10;;;;;;;9.85;100.00;95538.59;1027092;28;20026;-71
2023/04/11 01:01:13;;;;;;;1.73;1.63;;;;;;;9.85;100.00;95528.09;1028352;28;20829;-72
2023/04/11 01:01:43;;;;;;;3.53;1.92;;;;;;;9.84;100.00;95532.56;1031278;28;20033;-72
2023/04/11 01:02:14;;;;;;;2.20;1.75;;;;;;;9.87;100.00;95526.03;1026967;28;20281;-72
2023/04/11 01:02:45;;;;;;;4.68;1.90;;;;;;;9.87;100.00;95529.44;1038310;28;20021;-72
2023/04/11 01:03:16;;;;;;;2.35;2.00;;;;;;;9.87;100.00;95520.78;1038629;28;20067;-71
2023/04/11 01:03:47;;;;;;;3.20;2.13;;;;;;;9.89;100.00;95524.72;1030377;28;20739;-72
2023/04/11 01:04:18;;;;;;;3.15;2.28;;;;;;;9.90;100.00;95520.25;1030451;28;20258;-72
2023/04/11 01:04:48;;;;;;;2.72;2.20;;;;;;;9.89;100.00;95519.47;1029659;28;20513;-71
2023/04/11 01:05:19;;;;;;;2.38;2.03;;;;;;;9.85;100.00;95507.91;1039883;28;20044;-72
2023/04/11 01:05:51;;;;;;;2.65;2.30;;;;;;;9.86;100.00;95513.97;1043649;28;20441;-72
2023/04/11 01:06:22;;;;;;;5.00;1.95;;;;;;;9.87;100.00;95515.53;1030265;28;20022;-72
2023/04/11 01:07:02;;;;;;;2.67;2.10;;;;;;;9.91;100.00;95517.34;1026263;28;20258;-72
2023/04/11 01:07:33;;;;;;;3.20;1.98;;;;;;;9.88;100.00;95511.84;1026363;28;20279;-73
2023/04/11 01:08:03;;;;;;;3.17;2.13;;;;;;;9.86;100.00;95513.97;1029818;28;20037;-72
2023/04/11 01:08:34;;;;;;;2.60;2.00;;;;;;;9.80;100.00;95504.53;1030067;28;20552;-73
2023/04/11 01:09:05;;;;;;;3.42;2.03;;;;;;;9.66;100.00;95489.34;1027618;28;20046;-71
2023/04/11 01:09:35;;;;;;;3.63;1.95;;;;;;;9.83;100.00;95502.19;1038566;28;20025;-72
2023/04/11 01:10:06;;;;;;;2.33;1.80;;;;;;;9.83;100.00;95498.78;1036704;28;20107;-72
2023/04/11 01:10:37;;;;;;;1.95;1.77;;;;;;;9.87;100.00;95499.81;1034313;28;20021;-73
2023/04/11 01:11:08;;;;;;;5.70;2.33;;;;;;;9.87;100.00;95502.44;1034394;28;20264;-72
2023/04/11 01:11:38;;;;;;;2.80;1.90;;;;;;;9.90;100.00;95505.31;1029614;28;20040;-72
2023/04/11 01:12:08;;;;;;;2.10;1.90;;;;;;;9.91;100.00;95495.59;1030081;28;20408;-72
2023/04/11 01:12:39;;;;;;;2.28;1.75;;;;;;;9.91;100.00;95491.16;1034318;28;20029;-72
2023/04/11 01:13:09;;;;;;;3.20;1.95;;;;;;;9.93;100.00;95492.75;1034311;28;20022;-72
2023/04/11 01:13:40;;;;;;;2.38;2.13;;;;;;;9.91;100.00;95496.38;1026470;28;20023;-71
2023/04/11 01:14:10;;;;;;;2.80;2.17;;;;;;;9.93;100.00;95487.50;1034519;28;20101;-72
2023/04/11 01:14:41;;;;;;;5.45;2.83;;;;;;;9.91;100.00;95488.53;1029801;28;20026;-72
2023/04/11 01:15:11;;;;;;;2.78;2.20;;;;;;;9.79;100.00;95461.84;1026131;28;20747;-72
2023/04/11 01:15:42;;;;;;;3.22;2.00;;;;;;;9.94;100.00;95491.69;1025141;28;20026;-72
2023/04/11 01:16:14;;;;;;;3.22;2.10;;;;;;;9.90;100.00;95488.81;1033630;28;20022;-72
2023/04/11 01:16:49;;;;;;;3.22;2.88;;;;;;;9.92;100.00;95486.69;1030224;28;20095;-72
2023/04/11 01:17:20;;;;;;;3.03;2.25;;;;;;;9.88;100.00;95477.78;1027838;28;20340;-72
2023/04/11 01:17:54;;;;;;;2.90;2.20;;;;;;;9.89;100.00;95480.16;1027569;28;20381;-73
2023/04/11 01:18:25;;;;;;;2.78;2.10;;;;;;;9.89;100.00;95481.97;1033481;28;20273;-72
2023/04/11 01:18:56;;;;;;;3.60;2.35;;;;;;;9.87;100.00;95468.38;1037231;28;20279;-72
2023/04/11 01:19:26;;;;;;;2.47;2.13;;;;;;;9.85;100.00;95465.22;1038442;28;20271;-73
2023/04/11 01:19:57;;;;;;;2.63;1.85;;;;;;;9.87;100.00;95468.38;1034363;28;20041;-72
2023/04/11 01:20:28;;;;;;;3.15;1.92;;;;;;;9.84;100.00;95459.19;1030466;28;20062;-72
2023/04/11 01:20:59;;;;;;;3.03;2.22;;;;;;;9.90;100.00;95467.84;1034121;28;20111;-72
2023/04/11 01:21:30;;;;;;;3.53;2.28;;;;;;;9.88;100.00;95462.06;1034104;28;20371;-72
2023/04/11 01:22:01;;;;;;;5.72;2.22;;;;;;;9.91;100.00;95458.91;1026389;28;20027;-71
2023/04/11 01:22:31;;;;;;;1.98;1.80;;;;;;;9.86;100.00;95451.06;1033264;28;20281;-71
2023/04/11 01:23:02;;;;;;;2.70;2.20;;;;;;;9.89;100.00;95453.16;1030279;28;20014;-72
2023/04/11 01:23:33;;;;;;;2.60;2.35;;;;;;;9.82;100.00;95448.19;1028482;28;20046;-71
2023/04/11 01:24:04;;;;;;;2.25;2.03;;;;;;;9.89;100.00;95458.38;1038399;28;20135;-72
2023/04/11 01:24:34;;;;;;;2.75;2.33;;;;;;;9.87;100.00;95458.66;1033758;28;20084;-72
2023/04/11 01:25:05;;;;;;;2.85;2.05;;;;;;;9.82;100.00;95450.00;1034219;28;20033;-73
2023/04/11 01:25:35;;;;;;;3.30;2.22;;;;;;;9.84;100.00;95459.19;1031654;28;20586;-72
2023/04/11 01:26:06;;;;;;;3.63;2.25;;;;;;;9.83;100.00;95462.09;1030783;28;20041;-72
2023/04/11 01:26:36;;;;;;;2.28;2.08;;;;;;;9.70;100.00;95431.19;1034346;28;20036;-72
2023/04/11 01:27:07;;;;;;;3.42;2.10;;;;;;;9.78;100.00;95447.13;1026605;28;20432;-71
2023/04/11 01:27:37;;;;;;;4.68;2.40;;;;;;;9.85;100.00;95454.72;1026405;28;20035;-72
2023/04/11 01:28:08;;;;;;;3.20;2.38;;;;;;;9.84;100.00;95455.78;1026218;28;20576;-72
2023/04/11 01:28:39;;;;;;;2.80;1.95;;;;;;;9.85;100.00;95447.66;1026599;28;20527;-72
2023/04/11 01:29:09;;;;;;;2.90;2.40;;;;;;;9.87;100.00;95445.56;1030646;28;20304;-72
2023/04/11 01:29:40;;;;;;;3.13;2.20;;;;;;;9.87;100.00;95452.66;1033592;28;20640;-73
2023/04/11 01:30:11;;;;;;;2.20;1.80;;;;;;;9.88;100.00;95441.09;1038338;28;20041;-72
2023/04/11 01:30:41;;;;;;;2.47;2.03;;;;;;;9.87;100.00;95440.31;1038360;28;20026;-72
2023/04/11 01:31:12;;;;;;;2.25;1.90;;;;;;;9.89;100.00;95446.09;1034472;28;20257;-72
2023/04/11 01:31:42;;;;;;;3.22;2.22;;;;;;;9.88;100.00;95443.72;1034455;28;20024;-73
2023/04/11 01:32:13;;;;;;;2.90;2.45;;;;;;;9.88;100.00;95441.88;1026300;28;20018;-72
2023/04/11 01:32:43;;;;;;;3.30;2.25;;;;;;;9.89;100.00;95445.28;1026430;28;20030;-72
2023/04/11 01:33:14;;;;;;;2.75;2.22;;;;;;;9.89;100.00;95448.72;1034341;28;20658;-72
2023/04/11 01:33:45;;;;;;;3.55;2.38;;;;;;;9.88;100.00;95452.38;1026472;28;20018;-72
2023/04/11 01:34:16;;;;;;;2.10;1.90;;;;;;;9.85;100.00;95441.63;1030380;28;20637;-73
2023/04/11 01:34:47;;;;;;;3.25;2.30;;;;;;;9.90;100.00;95452.13;1032414;28;20068;-72
2023/04/11 01:35:17;;;;;;;2.33;2.13;;;;;;;9.95;100.00;95459.94;1030230;28;20296;-72
2023/04/11 01:35:48;;;;;;;2.75;2.03;;;;;;;9.96;100.00;95458.13;1030291;28;20022;-72
2023/04/11 01:36:18;;;;;;;4.53;2.05;;;;;;;9.96;100.00;95458.94;1034147;28;20026;-72
2023/04/11 01:36:49;;;;;;;2.65;2.22;;;;;;;9.91;100.00;95448.44;1034519;28;20022;-72
2023/04/11 01:37:19;;;;;;;2.10;1.90;;;;;;;9.86;100.00;95445.84;1038609;28;20021;-71
2023/04/11 01:37:50;;;;;;;4.13;2.30;;;;;;;9.99;100.00;95460.22;1038285;28;20030;-72
2023/04/11 01:38:20;;;;;;;3.10;2.20;;;;;;;10.02;100.00;95457.06;1039080;28;20025;-72
2023/04/11 01:38:50;;;;;;;2.88;2.35;;;;;;;10.01;100.00;95458.91;1038362;28;20022;-72
2023/04/11 01:39:21;;;;;;;3.08;2.42;;;;;;;9.99;100.00;95445.25;1042760;28;20029;-72
2023/04/11 01:39:51;;;;;;;2.65;2.10;;;;;;;10.04;100.00;95458.38;1037081;28;20033;-73
2023/04/11 01:40:22;;;;;;;3.25;2.42;;;;;;;9.97;100.00;95447.38;1038384;28;20032;-72
2023/04/11 01:40:53;;;;;;;3.22;2.30;;;;;;;10.02;100.00;95449.19;1028823;28;20355;-72
2023/04/11 01:41:24;;;;;;;5.25;2.20;;;;;;;10.07;100.00;95452.59;1036628;28;20264;-72
2023/04/11 01:41:54;;;;;;;2.50;2.17;;;;;;;10.05;100.00;95446.03;1035043;28;20017;-72
2023/04/11 01:42:25;;;;;;;2.65;2.25;;;;;;;10.08;100.00;95454.16;1026247;28;20508;-72
2023/04/11 01:42:55;;;;;;;4.10;2.42;;;;;;;10.04;100.00;95445.25;1022299;28;20083;-72
2023/04/11 01:43:26;;;;;;;3.42;2.20;;;;;;;10.09;100.00;95449.69;1029624;28;20022;-72
2023/04/11 01:43:56;;;;;;;2.58;2.10;;;;;;;10.06;100.00;95437.94;1022112;28;20019;-72
2023/04/11 01:44:27;;;;;;;2.22;2.03;;;;;;;10.12;100.00;95455.19;1021787;29;20616;-71
2023/04/11 01:44:58;;;;;;;4.63;2.55;;;;;;;10.12;100.00;95449.16;1026180;28;20022;-73
2023/04/11 01:45:29;;;;;;;3.00;2.55;;;;;;;10.12;100.00;95438.69;1030626;28;20691;-72
2023/04/11 01:45:59;;;;;;;2.60;1.90;;;;;;;10.17;100.00;95445.78;1030044;28;20427;-72
2023/04/11 01:46:30;;;;;;;4.35;1.90;;;;;;;10.18;100.00;95442.09;1030250;28;20122;-72
2023/04/11 01:47:00;;;;;;;2.20;2.00;;;;;;;10.20;100.00;95445.25;1030487;28;20062;-72
2023/04/11 01:47:31;;;;;;;4.15;2.42;;;;;;;10.20;100.00;95440.00;1034866;28;20030;-72
2023/04/11 01:48:07;;;;;;;3.40;2.25;;;;;;;10.20;100.00;95440.00;1038292;28;20084;-72
2023/04/11 01:48:37;;;;;;;3.08;2.20;;;;;;;10.22;100.00;95437.88;1035054;28;20038;-72
2023/04/11 01:49:08;;;;;;;4.07;2.05;;;;;;;10.17;100.00;95430.81;1034557;28;20264;-72
2023/04/11 01:49:38;;;;;;;2.65;2.35;;;;;;;10.19;100.00;95428.69;1030169;28;20030;-72
2023/04/11 01:50:10;;;;;;;3.53;2.63;;;;;;;10.27;100.00;95430.03;1030201;28;20084;-72
2023/04/11 01:50:41;;;;;;;3.75;2.17;;;;;;;10.27;100.00;95428.19;1030286;28;20701;-71
2023/04/11 01:51:11;;;;;;;2.88;2.25;;;;;;;10.28;100.00;95421.88;1038597;28;20267;-72
2023/04/11 01:51:42;;;;;;;2.47;2.08;;;;;;;10.31;100.00;95425.81;1038988;28;20471;-71
2023/04/11 01:52:12;;;;;;;3.03;2.47;;;;;;;10.32;100.00;95422.13;1034212;28;20025;-72
2023/04/11 01:52:43;;;;;;;2.80;2.13;;;;;;;10.29;100.00;95423.44;1033720;28;20419;-72
2023/04/11 01:53:13;;;;;;;2.78;2.35;;;;;;;10.26;100.00;95413.53;1026425;28;20086;-73
2023/04/11 01:53:46;;;;;;;2.67;2.30;;;;;;;10.31;100.00;95421.34;1022079;28;20078;-72
2023/04/11 01:54:16;;;;;;;2.60;2.30;;;;;;;10.33;100.00;95428.97;1030342;28;20034;-72
2023/04/11 01:54:47;;;;;;;2.72;2.17;;;;;;;10.33;100.00;95424.50;1025417;28;20273;-72
2023/04/11 01:55:17;;;;;;;3.40;2.45;;;;;;;10.32;100.00;95427.38;1022872;28;20075;-72
2023/04/11 01:55:48;;;;;;;2.83;2.13;;;;;;;10.28;100.00;95416.63;1038604;28;20025;-72
2023/04/11 01:56:18;;;;;;;2.55;2.10;;;;;;;10.34;100.00;95427.91;1038379;28;20025;-72
2023/04/11 01:56:49;;;;;;;3.25;2.40;;;;;;;10.32;100.00;95430.00;1036694;28;20541;-72
2023/04/11 01:57:19;;;;;;;2.28;2.05;;;;;;;10.30;100.00;95432.13;1038191;28;20083;-72
2023/04/11 01:57:50;;;;;;;3.05;2.10;;;;;;;10.24;100.00;95417.44;1034185;28;20085;-72
2023/04/11 01:58:20;;;;;;;4.10;2.35;;;;;;;10.31;100.00;95433.69;1035273;28;20026;-72
2023/04/11 01:58:50;;;;;;;3.20;2.60;;;;;;;10.25;100.00;95432.88;1030056;28;20588;-72
2023/04/11 01:59:21;;;;;;;3.35;2.42;;;;;;;10.25;100.00;95438.13;1030114;28;20049;-72
2023/04/11 01:59:51;;;;;;;2.80;2.00;;;;;;;10.20;100.00;95426.88;1030388;28;20021;-72
2023/04/11 02:00:22;;;;;;;2.25;2.05;;;;;;;10.22;100.00;95422.13;1030059;28;20085;-72
2023/04/11 02:00:53;;;;;;;3.70;2.20;;;;;;;10.20;100.00;95429.50;1030244;28;20395;-72
2023/04/11 02:01:23;;;;;;;2.63;2.40;;;;;;;10.25;100.00;95438.13;1026107;28;20265;-73
2023/04/11 02:01:54;;;;;;;4.68;2.28;;;;;;;10.24;100.00;95433.94;1026204;28;20046;-71
2023/04/11 02:02:24;;;;;;;2.90;2.40;;;;;;;10.24;100.00;95441.03;1026551;28;20023;-73
2023/04/11 02:02:55;;;;;;;3.85;2.67;;;;;;;10.20;100.00;95434.75;1030259;28;20485;-72
2023/04/11 02:03:25;;;;;;;2.45;2.20;;;;;;;10.20;100.00;95437.38;1035011;28;20029;-72
2023/04/11 02:03:56;;;;;;;3.00;2.13;;;;;;;10.21;100.00;95436.31;1038411;28;20032;-72
2023/04/11 02:04:26;;;;;;;4.30;2.45;;;;;;;10.21;100.00;95436.31;1037921;28;20025;-71
2023/04/11 02:04:57;;;;;;;3.38;2.55;;;;;;;10.21;100.00;95431.84;1034157;28;20041;-72
2023/04/11 02:05:27;;;;;;;2.47;2.28;;;;;;;10.15;100.00;95412.72;1034019;28;20018;-72
2023/04/11 02:05:58;;;;;;;1.88;1.70;;;;;;;10.20;100.00;95429.50;1038416;28;20441;-72
2023/04/11 02:06:28;;;;;;;6.63;2.17;;;;;;;10.15;100.00;95419.81;1034450;28;20141;-72
2023/04/11 02:06:58;;;;;;;4.65;2.33;;;;;;;10.18;100.00;95426.34;1036378;28;20018;-72
2023/04/11 02:07:29;;;;;;;4.07;2.40;;;;;;;10.17;100.00;95422.16;1038278;28;20029;-72
2023/04/11 02:08:00;;;;;;;3.47;2.20;;;;;;;10.16;100.00;95426.63;1037046;28;20546;-72
2023/04/11 02:08:30;;;;;;;2.35;2.13;;;;;;;10.11;100.00;95408.28;1042181;28;20049;-71
2023/04/11 02:09:01;;;;;;;3.65;2.40;;;;;;;10.15;100.00;95423.19;1042369;28;20025;-73
2023/04/11 02:09:31;;;;;;;2.22;2.03;;;;;;;10.14;100.00;95410.38;1042328;28;20029;-72
2023/04/11 02:10:02;;;;;;;2.85;2.42;;;;;;;10.13;100.00;95417.47;1038358;28;20513;-73
2023/04/11 02:10:32;;;;;;;2.63;2.30;;;;;;;10.12;100.00;95407.22;1042052;28;20017;-73
2023/04/11 02:11:04;;;;;;;2.83;2.03;;;;;;;10.14;100.00;95411.16;1038603;28;20025;-72
2023/04/11 02:11:34;;;;;;;2.83;2.10;;;;;;;10.11;100.00;95403.81;1042589;28;20025;-72
2023/04/11 02:12:05;;;;;;;4.25;2.33;;;;;;;10.13;100.00;95401.72;1040262;28;20280;-72
2023/04/11 02:12:35;;;;;;;3.00;2.22;;;;;;;10.12;100.00;95401.97;1038307;28;20637;-72
2023/04/11 02:13:05;;;;;;;2.97;2.17;;;;;;;10.10;100.00;95404.88;1042478;28;20114;-72
2023/04/11 02:13:36;;;;;;;2.50;2.17;;;;;;;10.01;100.00;95388.13;1042456;28;20035;-72
2023/04/11 02:14:08;;;;;;;2.65;2.08;;;;;;;10.11;100.00;95401.19;1046263;28;20029;-73
2023/04/11 02:14:43;;;;;;;2.22;1.92;;;;;;;10.13;100.00;95406.97;1041468;28;20025;-73
2023/04/11 02:15:13;;;;;;;4.90;2.17;;;;;;;10.11;100.00;95393.34;1033917;28;20335;-72
2023/04/11 02:15:44;;;;;;;3.30;2.38;;;;;;;10.14;100.00;95398.03;1034103;28;20603;-72
2023/04/11 02:16:16;;;;;;;3.75;2.33;;;;;;;10.13;100.00;95404.34;1033381;28;20026;-72
2023/04/11 02:16:54;;;;;;;2.63;2.00;;;;;;;10.15;100.00;95397.00;1034602;28;20878;-73
2023/04/11 02:17:25;;;;;;;3.83;2.15;;;;;;;10.12;100.00;95400.13;1034206;28;20275;-72
2023/04/11 02:17:55;;;;;;;2.63;2.08;;;;;;;10.14;100.00;95400.66;1035486;28;20306;-72
2023/04/11 02:18:26;;;;;;;2.15;1.90;;;;;;;10.14;100.00;95398.03;1039365;28;20268;-73
2023/04/11 02:18:56;;;;;;;2.40;2.20;;;;;;;10.09;100.00;95392.03;1042146;28;20029;-72
2023/04/11 02:19:27;;;;;;;2.78;1.98;;;;;;;10.14;100.00;95395.44;1034114;28;20033;-72
2023/04/11 02:19:57;;;;;;;1.75;1.63;;;;;;;10.17;100.00;95401.19;1034051;28;20029;-72
2023/04/11 02:20:28;;;;;;;2.50;1.80;;;;;;;10.22;100.00;95396.69;1034224;28;20030;-72
2023/04/11 02:20:59;;;;;;;2.47;2.28;;;;;;;10.23;100.00;95400.09;1034431;28;20014;-72
2023/04/11 02:21:30;;;;;;;2.78;2.28;;;;;;;10.24;100.00;95399.06;1043398;28;20025;-72
2023/04/11 02:22:01;;;;;;;2.70;1.85;;;;;;;10.26;100.00;95396.97;1046820;28;20259;-71
2023/04/11 02:22:31;;;;;;;1.98;1.77;;;;;;;10.28;100.00;95400.13;1045455;28;20772;-72
2023/04/11 02:23:03;;;;;;;2.10;1.90;;;;;;;10.31;100.00;95397.75;1046895;28;20020;-72
2023/04/11 02:23:33;;;;;;;3.47;2.22;;;;;;;10.32;100.00;95391.44;1034790;28;20045;-72
2023/04/11 02:24:04;;;;;;;2.40;2.00;;;;;;;10.34;100.00;95394.59;1034781;28;20261;-73
2023/04/11 02:24:34;;;;;;;2.25;2.03;;;;;;;10.35;100.00;95388.28;1042193;28;20035;-72
2023/04/11 02:25:06;;;;;;;2.20;2.00;;;;;;;10.32;100.00;95380.19;1046811;28;20021;-72